createdAt,value
2018-12-10T00:00:00.173Z,6.40
2018-12-10T00:02:28.753Z,6.40
2018-12-10T00:04:57.457Z,6.40
2018-12-10T00:07:27.144Z,6.40
2018-12-10T00:09:55.700Z,6.30
2018-12-10T00:12:24.234Z,6.30
2018-12-10T00:14:52.778Z,6.30
2018-12-10T00:17:21.695Z,6.30
2018-12-10T00:19:50.378Z,6.20
2018-12-10T00:22:19.384Z,6.20
2018-12-10T00:24:47.906Z,6.10
2018-12-10T00:27:16.417Z,6.10
2018-12-10T00:29:44.928Z,6.00
2018-12-10T00:32:13.692Z,6.00
2018-12-10T00:34:42.222Z,6.00
2018-12-10T00:37:10.878Z,5.90
2018-12-10T00:39:39.408Z,5.90
2018-12-10T00:47:04.519Z,5.80
2018-12-10T00:49:33.068Z,5.50
2018-12-10T00:52:01.575Z,5.40
2018-12-10T00:54:30.142Z,5.30
2018-12-10T00:56:58.794Z,5.20
2018-12-10T00:59:27.499Z,5.20
2018-12-10T01:01:56.068Z,5.20
2018-12-10T01:04:25.063Z,5.20
2018-12-10T01:06:53.606Z,5.20
2018-12-10T01:09:23.351Z,5.20
2018-12-10T01:11:52.215Z,5.20
2018-12-10T01:14:20.635Z,5.20
2018-12-10T01:16:49.370Z,5.30
2018-12-10T01:19:17.930Z,5.30
2018-12-10T01:21:46.556Z,5.30
2018-12-10T01:24:15.489Z,5.30
2018-12-10T01:26:44.432Z,5.30
2018-12-10T01:29:13.720Z,5.40
2018-12-10T01:31:43.239Z,5.40
2018-12-10T01:34:12.653Z,5.30
2018-12-10T01:36:41.171Z,5.40
2018-12-10T01:39:10.635Z,5.40
2018-12-10T01:41:39.312Z,5.40
2018-12-10T01:44:07.809Z,5.40
2018-12-10T01:46:36.554Z,5.40
2018-12-10T01:49:05.032Z,5.30
2018-12-10T01:56:30.900Z,5.20
2018-12-10T01:58:59.802Z,5.10
2018-12-10T02:01:28.298Z,5.10
2018-12-10T02:03:56.820Z,5.10
2018-12-10T02:06:25.267Z,5.10
2018-12-10T02:08:53.768Z,5.00
2018-12-10T02:11:22.393Z,5.00
2018-12-10T02:13:50.935Z,5.00
2018-12-10T02:16:19.482Z,5.00
2018-12-10T02:18:48.020Z,5.00
2018-12-10T02:21:16.501Z,5.00
2018-12-10T02:23:46.472Z,5.00
2018-12-10T02:26:15.079Z,5.00
2018-12-10T02:28:49.125Z,5.00
2018-12-10T02:31:17.709Z,5.00
2018-12-10T02:33:47.203Z,5.00
2018-12-10T02:36:16.014Z,4.90
2018-12-10T02:38:44.508Z,4.90
2018-12-10T02:41:13.048Z,4.90
2018-12-10T02:43:41.632Z,4.80
2018-12-10T02:46:10.353Z,4.80
2018-12-10T02:48:39.032Z,4.80
2018-12-10T02:51:08.244Z,4.70
2018-12-10T02:53:36.785Z,4.60
2018-12-10T02:56:05.318Z,4.50
2018-12-10T02:58:35.295Z,4.40
2018-12-10T03:01:04.435Z,4.40
2018-12-10T03:03:32.901Z,4.30
2018-12-10T03:06:02.077Z,4.20
2018-12-10T03:08:30.648Z,4.20
2018-12-10T03:10:59.398Z,4.20
2018-12-10T03:13:28.844Z,4.20
2018-12-10T03:15:57.434Z,4.10
2018-12-10T03:18:25.929Z,4.10
2018-12-10T03:20:54.742Z,4.10
2018-12-10T03:23:23.342Z,4.10
2018-12-10T03:25:51.832Z,4.10
2018-12-10T03:28:20.887Z,4.10
2018-12-10T03:30:49.343Z,4.00
2018-12-10T03:33:17.828Z,4.00
2018-12-10T03:35:47.311Z,3.90
2018-12-10T03:38:15.820Z,3.80
2018-12-10T03:40:44.354Z,3.80
2018-12-10T03:43:13.320Z,3.70
2018-12-10T03:45:42.515Z,3.70
2018-12-10T03:48:12.007Z,3.60
2018-12-10T03:50:40.891Z,3.70
2018-12-10T03:53:09.545Z,3.70
2018-12-10T03:55:38.267Z,3.60
2018-12-10T03:58:06.832Z,3.60
2018-12-10T04:00:35.449Z,3.60
2018-12-10T04:03:03.940Z,3.60
2018-12-10T04:05:33.186Z,3.60
2018-12-10T04:08:01.768Z,3.60
2018-12-10T04:10:30.356Z,3.60
2018-12-10T04:12:59.962Z,3.60
2018-12-10T04:15:28.847Z,3.60
2018-12-10T04:17:57.336Z,3.60
2018-12-10T04:20:27.325Z,3.60
2018-12-10T04:22:55.945Z,3.60
2018-12-10T04:25:24.561Z,3.70
2018-12-10T04:27:53.096Z,3.70
2018-12-10T04:30:23.332Z,3.70
2018-12-10T04:32:51.806Z,3.80
2018-12-10T04:35:21.150Z,3.80
2018-12-10T04:37:49.758Z,3.80
2018-12-10T04:40:18.576Z,3.70
2018-12-10T04:42:47.283Z,3.70
2018-12-10T04:45:15.843Z,3.60
2018-12-10T04:47:44.346Z,3.60
2018-12-10T04:50:13.217Z,3.60
2018-12-10T04:52:41.761Z,3.50
2018-12-10T04:55:10.405Z,3.50
2018-12-10T04:57:40.143Z,3.50
2018-12-10T05:00:08.907Z,3.50
2018-12-10T05:02:37.532Z,3.60
2018-12-10T05:05:07.044Z,3.60
2018-12-10T05:07:35.545Z,3.50
2018-12-10T05:10:04.927Z,3.50
2018-12-10T05:12:33.738Z,3.50
2018-12-10T05:15:04.024Z,3.60
2018-12-10T05:17:33.614Z,3.60
2018-12-10T05:20:02.421Z,3.60
2018-12-10T05:22:30.996Z,3.60
2018-12-10T05:25:00.172Z,3.70
2018-12-10T05:27:28.833Z,3.70
2018-12-10T05:29:57.396Z,3.70
2018-12-10T05:32:26.489Z,3.70
2018-12-10T05:34:55.086Z,3.60
2018-12-10T05:37:23.598Z,3.60
2018-12-10T05:39:52.195Z,3.60
2018-12-10T05:42:21.696Z,3.70
2018-12-10T05:44:50.244Z,3.70
2018-12-10T05:47:18.846Z,3.60
2018-12-10T05:49:47.371Z,3.60
2018-12-10T05:52:16.250Z,3.60
2018-12-10T05:54:44.696Z,3.50
2018-12-10T05:57:13.231Z,3.50
2018-12-10T05:59:41.775Z,3.50
2018-12-10T06:02:10.982Z,3.50
2018-12-10T06:04:39.607Z,3.40
2018-12-10T06:07:08.209Z,3.40
2018-12-10T06:09:36.734Z,3.40
2018-12-10T06:12:05.965Z,3.40
2018-12-10T06:14:34.446Z,3.40
2018-12-10T06:17:04.463Z,3.40
2018-12-10T06:19:33.434Z,3.40
2018-12-10T06:22:01.917Z,3.40
2018-12-10T06:24:30.427Z,3.40
2018-12-10T06:26:58.943Z,3.40
2018-12-10T06:29:27.574Z,3.40
2018-12-10T06:31:56.145Z,3.40
2018-12-10T06:34:24.832Z,3.40
2018-12-10T06:36:53.330Z,3.40
2018-12-10T06:39:21.876Z,3.40
2018-12-10T06:41:50.505Z,3.40
2018-12-10T06:44:19.023Z,3.40
2018-12-10T06:46:47.614Z,3.40
2018-12-10T06:49:16.257Z,3.40
2018-12-10T06:51:44.792Z,3.50
2018-12-10T06:54:13.801Z,3.50
2018-12-10T06:56:42.625Z,3.50
2018-12-10T06:59:11.145Z,3.50
2018-12-10T07:01:41.525Z,3.50
2018-12-10T07:04:10.187Z,3.50
2018-12-10T07:06:38.825Z,3.50
2018-12-10T07:09:07.623Z,3.60
2018-12-10T07:11:36.221Z,3.60
2018-12-10T07:14:05.767Z,3.60
2018-12-10T07:16:35.098Z,3.70
2018-12-10T07:19:05.195Z,3.80
2018-12-10T07:21:33.708Z,3.80
2018-12-10T07:24:02.206Z,3.80
2018-12-10T07:26:30.859Z,3.80
2018-12-10T07:28:59.561Z,3.90
2018-12-10T07:31:28.264Z,3.90
2018-12-10T07:33:56.747Z,3.90
2018-12-10T07:36:26.099Z,4.00
2018-12-10T07:38:54.589Z,4.00
2018-12-10T07:41:23.080Z,4.10
2018-12-10T07:43:51.700Z,4.20
2018-12-10T07:46:20.195Z,4.30
2018-12-10T07:48:48.673Z,4.40
2018-12-10T07:51:17.242Z,4.40
2018-12-10T07:53:45.727Z,4.40
2018-12-10T07:56:14.713Z,4.50
2018-12-10T07:58:43.194Z,4.60
2018-12-10T08:01:12.265Z,4.60
2018-12-10T08:03:40.996Z,4.70
2018-12-10T08:06:09.473Z,4.70
2018-12-10T08:08:38.029Z,4.70
2018-12-10T08:11:07.081Z,4.80
2018-12-10T08:13:35.551Z,4.80
2018-12-10T08:16:05.047Z,4.80
2018-12-10T08:18:34.360Z,4.90
2018-12-10T08:21:02.989Z,4.90
2018-12-10T08:23:32.250Z,5.00
2018-12-10T08:26:00.865Z,5.10
2018-12-10T08:28:29.843Z,5.00
2018-12-10T08:30:58.991Z,5.10
2018-12-10T08:33:27.786Z,5.20
2018-12-10T08:35:56.329Z,5.20
2018-12-10T08:38:25.137Z,5.20
2018-12-10T08:40:53.680Z,5.20
2018-12-10T08:43:22.172Z,5.20
2018-12-10T08:45:50.747Z,5.10
2018-12-10T08:48:19.586Z,5.30
2018-12-10T08:50:48.140Z,5.30
2018-12-10T08:53:16.643Z,5.30
2018-12-10T08:55:45.253Z,5.30
2018-12-10T08:58:14.169Z,5.30
2018-12-10T09:00:42.686Z,5.30
2018-12-10T09:03:11.161Z,5.40
2018-12-10T09:05:39.653Z,5.40
2018-12-10T09:08:08.161Z,5.50
2018-12-10T09:13:06.465Z,5.50
2018-12-10T09:15:34.940Z,5.60
2018-12-10T09:18:03.462Z,5.70
2018-12-10T09:20:31.997Z,5.80
2018-12-10T09:23:00.628Z,5.80
2018-12-10T09:25:29.214Z,5.80
2018-12-10T09:27:57.772Z,5.80
2018-12-10T09:30:26.260Z,5.80
2018-12-10T09:32:54.876Z,5.80
2018-12-10T09:35:23.523Z,5.80
2018-12-10T09:37:52.030Z,5.80
2018-12-10T09:40:21.411Z,5.80
2018-12-10T09:42:49.981Z,5.90
2018-12-10T09:45:18.539Z,5.80
2018-12-10T09:47:47.081Z,5.80
2018-12-10T09:50:15.610Z,5.80
2018-12-10T09:52:44.162Z,5.90
2018-12-10T09:55:12.746Z,5.90
2018-12-10T09:57:41.232Z,5.90
2018-12-10T10:00:11.097Z,5.90
2018-12-10T10:02:39.676Z,5.80
2018-12-10T10:05:08.548Z,5.90
2018-12-10T10:07:37.198Z,5.90
2018-12-10T10:10:06.693Z,5.90
2018-12-10T10:12:35.370Z,6.00
2018-12-10T10:15:04.234Z,6.00
2018-12-10T10:17:32.827Z,6.00
2018-12-10T10:20:01.348Z,6.00
2018-12-10T10:22:29.980Z,6.00
2018-12-10T10:24:58.853Z,6.10
2018-12-10T10:27:27.342Z,6.10
2018-12-10T10:29:55.994Z,6.20
2018-12-10T10:32:24.538Z,6.20
2018-12-10T10:34:53.031Z,6.20
2018-12-10T10:37:21.681Z,6.30
2018-12-10T10:39:51.222Z,6.30
2018-12-10T10:42:20.016Z,6.40
2018-12-10T10:44:48.526Z,6.50
2018-12-10T10:49:45.482Z,6.50
2018-12-10T10:54:42.170Z,6.60
2018-12-10T10:57:10.744Z,6.80
2018-12-10T10:59:39.251Z,6.90
2018-12-10T11:02:13.974Z,6.90
2018-12-10T11:07:10.678Z,7.00
2018-12-10T11:09:39.236Z,7.00
2018-12-10T11:12:07.854Z,7.10
2018-12-10T11:14:36.434Z,7.20
2018-12-10T11:17:05.066Z,7.20
2018-12-10T11:19:33.701Z,7.30
2018-12-10T11:22:02.215Z,7.30
2018-12-10T11:24:30.961Z,7.30
2018-12-10T11:46:46.012Z,7.40
2018-12-10T11:49:14.618Z,7.50
2018-12-10T11:51:43.167Z,7.50
2018-12-10T11:54:11.982Z,7.60
2018-12-10T11:56:41.275Z,7.60
2018-12-10T11:59:09.828Z,7.60
2018-12-10T12:01:38.467Z,7.60
2018-12-10T12:04:07.070Z,7.60
2018-12-10T12:06:35.760Z,7.70
2018-12-10T12:09:06.208Z,7.70
2018-12-10T12:11:34.794Z,7.70
2018-12-10T12:14:03.474Z,7.70
2018-12-10T12:16:32.591Z,7.70
2018-12-10T12:19:01.302Z,7.80
2018-12-10T12:21:29.832Z,7.80
2018-12-10T12:23:58.345Z,7.80
2018-12-10T12:28:56.533Z,7.80
2018-12-10T12:31:25.079Z,7.90
2018-12-10T12:33:53.512Z,7.90
2018-12-10T12:36:22.725Z,7.80
2018-12-10T12:38:51.318Z,7.80
2018-12-10T12:41:19.834Z,7.80
2018-12-10T12:43:48.361Z,7.90
2018-12-10T12:46:17.308Z,7.90
2018-12-10T12:48:45.789Z,7.90
2018-12-10T12:51:14.406Z,7.90
2018-12-10T12:53:43.310Z,7.90
2018-12-10T12:56:12.407Z,7.90
2018-12-10T12:58:41.171Z,7.90
2018-12-10T13:01:09.757Z,7.90
2018-12-10T13:03:38.378Z,7.90
2018-12-10T13:06:07.238Z,8.00
2018-12-10T13:08:35.892Z,8.00
2018-12-10T13:11:04.355Z,8.00
2018-12-10T13:13:32.854Z,8.00
2018-12-10T13:16:01.554Z,8.00
2018-12-10T13:18:30.184Z,8.10
2018-12-10T13:20:59.049Z,8.10
2018-12-10T13:23:28.247Z,8.10
2018-12-10T13:25:56.912Z,8.10
2018-12-10T13:28:25.624Z,8.10
2018-12-10T13:30:54.380Z,8.10
2018-12-10T13:33:22.955Z,8.10
2018-12-10T13:35:51.392Z,8.10
2018-12-10T13:38:19.946Z,8.10
2018-12-10T13:40:48.584Z,8.10
2018-12-10T13:43:18.126Z,8.00
2018-12-10T13:45:46.683Z,8.10
2018-12-10T13:48:15.467Z,8.10
2018-12-10T13:50:43.930Z,8.10
2018-12-10T13:53:12.679Z,8.00
2018-12-10T13:55:41.558Z,8.00
2018-12-10T13:58:10.047Z,7.90
2018-12-10T14:00:38.636Z,8.00
2018-12-10T14:03:07.593Z,8.00
2018-12-10T14:05:36.342Z,8.00
2018-12-10T14:08:04.928Z,8.00
2018-12-10T14:10:33.584Z,8.00
2018-12-10T14:13:02.077Z,8.00
2018-12-10T14:15:30.620Z,8.00
2018-12-10T14:17:59.335Z,8.00
2018-12-10T14:20:28.524Z,7.90
2018-12-10T14:22:57.851Z,7.90
2018-12-10T14:25:28.196Z,7.90
2018-12-10T14:27:56.721Z,7.90
2018-12-10T14:30:26.203Z,7.90
2018-12-10T14:32:55.716Z,7.90
2018-12-10T14:35:24.234Z,7.80
2018-12-10T14:37:54.063Z,7.80
2018-12-10T14:40:22.691Z,7.80
2018-12-10T14:42:53.024Z,7.80
2018-12-10T14:45:21.625Z,7.80
2018-12-10T14:47:53.623Z,7.80
2018-12-10T14:50:22.710Z,7.80
2018-12-10T14:52:51.673Z,7.70
2018-12-10T14:55:20.250Z,7.70
2018-12-10T14:57:48.758Z,7.70
2018-12-10T15:00:17.257Z,7.70
2018-12-10T15:02:45.772Z,7.70
2018-12-10T15:05:14.390Z,7.60
2018-12-10T15:07:42.921Z,7.50
2018-12-10T15:10:11.813Z,7.50
2018-12-10T15:12:40.406Z,7.50
2018-12-10T15:15:10.347Z,7.50
2018-12-10T15:17:39.328Z,7.40
2018-12-10T15:20:11.539Z,7.50
2018-12-10T15:22:40.013Z,7.50
2018-12-10T15:25:09.363Z,7.40
2018-12-10T15:27:38.879Z,7.40
2018-12-10T15:30:11.890Z,7.30
2018-12-10T15:32:41.467Z,7.30
2018-12-10T15:35:10.083Z,7.20
2018-12-10T15:37:38.579Z,7.10
2018-12-10T15:40:07.966Z,7.10
2018-12-10T15:42:36.475Z,7.00
2018-12-10T15:45:06.477Z,6.90
2018-12-10T15:47:35.013Z,6.90
2018-12-10T15:50:04.047Z,6.80
2018-12-10T15:52:32.773Z,6.70
2018-12-10T15:55:01.480Z,6.70
2018-12-10T15:57:30.049Z,6.70
2018-12-10T15:59:58.596Z,6.70
2018-12-10T16:02:28.166Z,6.70
2018-12-10T16:04:57.633Z,6.70
2018-12-10T16:07:26.158Z,6.70
2018-12-10T16:09:54.984Z,6.80
2018-12-10T16:12:23.539Z,6.70
2018-12-10T16:14:52.052Z,6.70
2018-12-10T16:17:20.634Z,6.70
2018-12-10T16:19:49.769Z,6.70
2018-12-10T16:22:18.250Z,6.70
2018-12-10T16:24:47.942Z,6.70
2018-12-10T16:27:17.189Z,6.70
2018-12-10T16:29:46.145Z,6.60
2018-12-10T16:32:15.605Z,6.60
2018-12-10T16:34:44.091Z,6.60
2018-12-10T16:37:13.148Z,6.50
2018-12-10T16:39:43.883Z,6.50
2018-12-10T16:42:12.483Z,6.50
2018-12-10T16:44:41.035Z,6.50
2018-12-10T16:47:09.700Z,6.40
2018-12-10T16:49:38.191Z,6.40
2018-12-10T16:52:06.749Z,6.40
2018-12-10T16:54:35.958Z,6.30
2018-12-10T16:57:04.608Z,6.30
2018-12-10T16:59:33.148Z,6.20
2018-12-10T17:02:01.664Z,6.20
2018-12-10T17:04:31.184Z,6.10
2018-12-10T17:07:01.111Z,6.10
2018-12-10T17:09:29.936Z,6.10
2018-12-10T17:11:58.803Z,6.00
2018-12-10T17:14:27.335Z,6.00
2018-12-10T17:16:55.894Z,6.00
2018-12-10T17:19:24.983Z,6.10
2018-12-10T17:21:53.553Z,6.10
2018-12-10T17:24:22.123Z,6.10
2018-12-10T17:26:50.909Z,6.10
2018-12-10T17:29:19.489Z,6.10
2018-12-10T17:31:48.096Z,6.10
2018-12-10T17:34:16.714Z,6.10
2018-12-10T17:36:45.770Z,6.10
2018-12-10T17:39:14.926Z,6.10
2018-12-10T17:41:44.819Z,6.20
2018-12-10T17:44:13.617Z,6.20
2018-12-10T17:46:42.390Z,6.20
2018-12-10T17:49:11.555Z,6.20
2018-12-10T17:51:40.047Z,6.20
2018-12-10T17:54:09.143Z,6.20
2018-12-10T17:56:37.842Z,6.20
2018-12-10T17:59:06.522Z,6.20
2018-12-10T18:01:35.197Z,6.10
2018-12-10T18:04:03.853Z,6.10
2018-12-10T18:06:32.341Z,6.10
2018-12-10T18:09:01.935Z,6.10
2018-12-10T18:11:30.511Z,6.10
2018-12-10T18:13:59.980Z,6.10
2018-12-10T18:16:29.308Z,6.10
2018-12-10T18:18:57.824Z,6.10
2018-12-10T18:21:26.621Z,6.10
2018-12-10T18:23:55.192Z,6.00
2018-12-10T18:26:23.828Z,6.00
2018-12-10T18:28:52.732Z,5.90
2018-12-10T18:31:21.461Z,5.90
2018-12-10T18:56:06.128Z,5.90
2018-12-10T18:58:34.868Z,5.80
2018-12-10T19:01:03.450Z,5.80
2018-12-10T19:03:31.941Z,5.80
2018-12-10T19:06:00.475Z,5.80
2018-12-10T19:08:28.946Z,5.70
2018-12-10T19:10:57.523Z,5.70
2018-12-10T19:13:26.098Z,5.70
2018-12-10T19:15:55.910Z,5.70
2018-12-10T19:18:24.428Z,5.70
2018-12-10T19:20:53.427Z,5.70
2018-12-10T19:23:22.083Z,5.70
2018-12-10T19:25:50.728Z,5.70
2018-12-10T19:28:19.249Z,5.70
2018-12-10T19:30:47.992Z,5.70
2018-12-10T19:33:16.540Z,5.70
2018-12-10T19:35:45.094Z,5.70
2018-12-10T19:38:13.737Z,5.70
2018-12-10T19:40:42.224Z,5.70
2018-12-10T19:43:10.696Z,5.70
2018-12-10T19:45:39.207Z,5.60
2018-12-10T19:48:07.913Z,5.60
2018-12-10T19:50:36.584Z,5.60
2018-12-10T19:53:05.642Z,5.50
2018-12-10T19:55:34.131Z,5.50
2018-12-10T19:58:03.515Z,5.50
2018-12-10T20:00:32.681Z,5.50
2018-12-10T20:03:05.049Z,5.50
2018-12-10T20:05:37.168Z,5.40
2018-12-10T20:08:05.704Z,5.40
2018-12-10T20:10:34.527Z,5.30
2018-12-10T20:13:03.375Z,5.30
2018-12-10T20:15:32.348Z,5.30
2018-12-10T20:18:00.828Z,5.30
2018-12-10T20:20:29.432Z,5.30
2018-12-10T20:22:58.042Z,5.20
2018-12-10T20:25:26.571Z,5.20
2018-12-10T20:27:55.728Z,5.10
2018-12-10T20:30:24.344Z,5.10
2018-12-10T20:32:53.947Z,5.10
2018-12-10T20:35:23.071Z,5.10
2018-12-10T20:37:52.292Z,5.10
2018-12-10T20:40:21.006Z,5.10
2018-12-10T20:42:50.556Z,5.10
2018-12-10T20:45:19.064Z,5.10
2018-12-10T20:47:47.638Z,5.10
2018-12-10T20:50:16.180Z,5.10
2018-12-10T20:52:44.687Z,5.10
2018-12-10T20:55:13.206Z,5.10
2018-12-10T20:57:42.546Z,5.10
2018-12-10T21:00:11.307Z,5.10
2018-12-10T21:02:40.031Z,5.10
2018-12-10T21:05:08.805Z,5.10
2018-12-10T21:07:37.358Z,5.00
2018-12-10T21:10:06.792Z,5.00
2018-12-10T21:12:35.394Z,5.00
2018-12-10T21:15:04.708Z,5.00
2018-12-10T21:17:33.983Z,4.90
2018-12-10T21:20:02.539Z,4.90
2018-12-10T21:22:31.054Z,4.90
2018-12-10T21:25:00.807Z,4.90
2018-12-10T21:27:29.277Z,4.90
2018-12-10T21:29:59.214Z,4.80
2018-12-10T21:32:27.709Z,4.90
2018-12-10T21:34:57.875Z,4.80
2018-12-10T21:37:26.444Z,4.80
2018-12-10T21:39:54.938Z,4.80
2018-12-10T21:42:23.532Z,4.80
2018-12-10T21:44:52.031Z,4.70
2018-12-10T21:47:20.631Z,4.70
2018-12-10T21:49:49.390Z,4.70
2018-12-10T21:52:19.285Z,4.70
2018-12-10T21:54:47.859Z,4.70
2018-12-10T21:57:17.048Z,4.70
2018-12-10T21:59:45.592Z,4.70
2018-12-10T22:54:08.587Z,4.60
2018-12-10T22:56:37.317Z,4.40
2018-12-10T23:04:03.086Z,4.40
2018-12-10T23:41:10.710Z,4.30
2018-12-10T23:43:39.860Z,4.10
2018-12-10T23:46:08.443Z,4.00
2018-12-10T23:48:36.989Z,4.00
2018-12-10T23:51:05.523Z,3.90
2018-12-10T23:53:34.152Z,3.90
2018-12-10T23:56:02.991Z,3.90
2018-12-10T23:58:32.923Z,3.90
